sensor_id;sensor_type;location;lat;lon;timestamp;temperature;humidity
40914;DHT22;26638;50.990;4.676;2024-01-30T00:01:39;10.10;99.90
40914;DHT22;26638;50.990;4.676;2024-01-30T00:04:05;9.90;99.90
40914;DHT22;26638;50.990;4.676;2024-01-30T00:06:30;9.80;99.90
40914;DHT22;26638;50.990;4.676;2024-01-30T00:08:57;9.90;99.90
40914;DHT22;26638;50.990;4.676;2024-01-30T00:11:23;10.00;99.90
40914;DHT22;26638;50.990;4.676;2024-01-30T00:13:51;9.90;99.90
40914;DHT22;26638;50.990;4.676;2024-01-30T00:16:24;9.90;99.90
40914;DHT22;26638;50.990;4.676;2024-01-30T00:18:54;9.90;99.90
40914;DHT22;26638;50.990;4.676;2024-01-30T00:21:20;9.90;99.90
40914;DHT22;26638;50.990;4.676;2024-01-30T00:23:46;9.70;99.90
40914;DHT22;26638;50.990;4.676;2024-01-30T00:26:12;9.70;99.90
40914;DHT22;26638;50.990;4.676;2024-01-30T00:28:40;9.70;99.90
40914;DHT22;26638;50.990;4.676;2024-01-30T00:31:06;9.60;99.90
40914;DHT22;26638;50.990;4.676;2024-01-30T00:33:32;9.60;99.90
40914;DHT22;26638;50.990;4.676;2024-01-30T00:35:58;9.70;99.90
40914;DHT22;26638;50.990;4.676;2024-01-30T00:38:23;9.70;99.90
40914;DHT22;26638;50.990;4.676;2024-01-30T00:40:49;9.50;99.90
40914;DHT22;26638;50.990;4.676;2024-01-30T00:43:16;9.30;99.90
40914;DHT22;26638;50.990;4.676;2024-01-30T00:45:43;9.20;99.90
40914;DHT22;26638;50.990;4.676;2024-01-30T00:48:09;9.40;99.90
40914;DHT22;26638;50.990;4.676;2024-01-30T00:50:35;9.70;99.90
40914;DHT22;26638;50.990;4.676;2024-01-30T00:53:01;9.70;99.90
40914;DHT22;26638;50.990;4.676;2024-01-30T00:55:27;9.90;99.90
40914;DHT22;26638;50.990;4.676;2024-01-30T00:57:52;10.00;99.90
40914;DHT22;26638;50.990;4.676;2024-01-30T01:00:18;10.20;99.90
40914;DHT22;26638;50.990;4.676;2024-01-30T01:02:46;10.20;99.90
40914;DHT22;26638;50.990;4.676;2024-01-30T01:05:12;10.10;99.90
40914;DHT22;26638;50.990;4.676;2024-01-30T01:07:38;10.20;99.90
40914;DHT22;26638;50.990;4.676;2024-01-30T01:10:04;10.10;99.90
40914;DHT22;26638;50.990;4.676;2024-01-30T01:12:30;10.20;99.90
40914;DHT22;26638;50.990;4.676;2024-01-30T01:14:58;11.40;99.90
40914;DHT22;26638;50.990;4.676;2024-01-30T01:17:24;10.00;99.90
40914;DHT22;26638;50.990;4.676;2024-01-30T01:19:49;10.00;99.90
40914;DHT22;26638;50.990;4.676;2024-01-30T01:22:16;10.00;99.90
40914;DHT22;26638;50.990;4.676;2024-01-30T01:24:42;9.90;99.90
40914;DHT22;26638;50.990;4.676;2024-01-30T01:27:08;9.90;99.90
40914;DHT22;26638;50.990;4.676;2024-01-30T01:29:34;9.60;99.90
40914;DHT22;26638;50.990;4.676;2024-01-30T01:31:59;9.60;99.90
40914;DHT22;26638;50.990;4.676;2024-01-30T01:34:28;9.70;99.90
40914;DHT22;26638;50.990;4.676;2024-01-30T01:36:54;9.70;99.90
40914;DHT22;26638;50.990;4.676;2024-01-30T01:39:22;8.60;99.90
40914;DHT22;26638;50.990;4.676;2024-01-30T01:41:51;9.80;99.90
40914;DHT22;26638;50.990;4.676;2024-01-30T01:44:18;9.80;99.90
40914;DHT22;26638;50.990;4.676;2024-01-30T01:46:44;9.90;99.90
40914;DHT22;26638;50.990;4.676;2024-01-30T01:49:10;9.80;99.90
40914;DHT22;26638;50.990;4.676;2024-01-30T01:51:36;9.80;99.90
40914;DHT22;26638;50.990;4.676;2024-01-30T01:54:04;9.60;99.90
40914;DHT22;26638;50.990;4.676;2024-01-30T01:56:31;9.70;99.90
40914;DHT22;26638;50.990;4.676;2024-01-30T01:59:01;9.60;99.90
40914;DHT22;26638;50.990;4.676;2024-01-30T02:01:32;9.50;99.90
40914;DHT22;26638;50.990;4.676;2024-01-30T02:03:59;9.20;99.90
40914;DHT22;26638;50.990;4.676;2024-01-30T02:06:24;9.20;99.90
40914;DHT22;26638;50.990;4.676;2024-01-30T02:08:54;9.30;99.90
40914;DHT22;26638;50.990;4.676;2024-01-30T02:11:20;9.00;99.90
40914;DHT22;26638;50.990;4.676;2024-01-30T02:13:46;9.10;99.90
40914;DHT22;26638;50.990;4.676;2024-01-30T02:16:12;9.10;99.90
40914;DHT22;26638;50.990;4.676;2024-01-30T02:18:37;9.00;99.90
40914;DHT22;26638;50.990;4.676;2024-01-30T02:21:07;9.00;99.90
40914;DHT22;26638;50.990;4.676;2024-01-30T02:23:34;9.00;99.90
40914;DHT22;26638;50.990;4.676;2024-01-30T02:26:00;8.90;99.90
40914;DHT22;26638;50.990;4.676;2024-01-30T02:28:26;8.80;99.90
40914;DHT22;26638;50.990;4.676;2024-01-30T02:30:52;8.80;99.90
40914;DHT22;26638;50.990;4.676;2024-01-30T02:33:18;8.60;99.90
40914;DHT22;26638;50.990;4.676;2024-01-30T02:35:44;8.60;99.90
40914;DHT22;26638;50.990;4.676;2024-01-30T02:38:10;8.60;99.90
40914;DHT22;26638;50.990;4.676;2024-01-30T02:40:36;8.60;99.90
40914;DHT22;26638;50.990;4.676;2024-01-30T02:43:02;8.50;99.90
40914;DHT22;26638;50.990;4.676;2024-01-30T02:45:28;8.50;99.90
40914;DHT22;26638;50.990;4.676;2024-01-30T02:47:54;8.40;99.90
40914;DHT22;26638;50.990;4.676;2024-01-30T02:50:20;8.70;99.90
40914;DHT22;26638;50.990;4.676;2024-01-30T02:52:45;8.60;99.90
40914;DHT22;26638;50.990;4.676;2024-01-30T02:55:11;9.00;99.90
40914;DHT22;26638;50.990;4.676;2024-01-30T02:57:38;9.30;99.90
40914;DHT22;26638;50.990;4.676;2024-01-30T03:00:06;9.60;99.90
40914;DHT22;26638;50.990;4.676;2024-01-30T03:02:33;9.90;99.90
40914;DHT22;26638;50.990;4.676;2024-01-30T03:04:59;10.10;99.90
40914;DHT22;26638;50.990;4.676;2024-01-30T03:07:25;10.40;99.90
40914;DHT22;26638;50.990;4.676;2024-01-30T03:09:51;10.50;99.90
40914;DHT22;26638;50.990;4.676;2024-01-30T03:12:17;10.60;99.90
40914;DHT22;26638;50.990;4.676;2024-01-30T03:14:43;10.80;99.90
40914;DHT22;26638;50.990;4.676;2024-01-30T03:17:09;10.90;99.90
40914;DHT22;26638;50.990;4.676;2024-01-30T03:19:35;11.00;99.90
40914;DHT22;26638;50.990;4.676;2024-01-30T03:22:00;11.00;99.90
40914;DHT22;26638;50.990;4.676;2024-01-30T03:24:26;11.20;99.90
40914;DHT22;26638;50.990;4.676;2024-01-30T03:26:52;11.10;99.90
40914;DHT22;26638;50.990;4.676;2024-01-30T03:29:18;11.10;99.90
40914;DHT22;26638;50.990;4.676;2024-01-30T03:31:44;11.80;99.90
40914;DHT22;26638;50.990;4.676;2024-01-30T03:34:10;11.30;99.90
40914;DHT22;26638;50.990;4.676;2024-01-30T03:36:35;11.40;99.90
40914;DHT22;26638;50.990;4.676;2024-01-30T03:39:01;11.40;99.90
40914;DHT22;26638;50.990;4.676;2024-01-30T03:41:27;11.30;99.90
40914;DHT22;26638;50.990;4.676;2024-01-30T03:43:53;11.40;99.90
40914;DHT22;26638;50.990;4.676;2024-01-30T03:46:19;11.50;99.90
40914;DHT22;26638;50.990;4.676;2024-01-30T03:48:45;11.50;99.90
40914;DHT22;26638;50.990;4.676;2024-01-30T03:51:11;11.60;99.90
40914;DHT22;26638;50.990;4.676;2024-01-30T03:53:43;11.60;99.90
40914;DHT22;26638;50.990;4.676;2024-01-30T03:56:09;11.60;99.90
40914;DHT22;26638;50.990;4.676;2024-01-30T03:58:35;11.50;99.90
40914;DHT22;26638;50.990;4.676;2024-01-30T04:01:01;11.50;99.90
40914;DHT22;26638;50.990;4.676;2024-01-30T04:03:27;11.40;99.90
40914;DHT22;26638;50.990;4.676;2024-01-30T04:05:53;11.50;99.90
40914;DHT22;26638;50.990;4.676;2024-01-30T04:08:19;11.60;99.90
40914;DHT22;26638;50.990;4.676;2024-01-30T04:10:45;11.60;99.90
40914;DHT22;26638;50.990;4.676;2024-01-30T04:13:10;11.70;99.90
40914;DHT22;26638;50.990;4.676;2024-01-30T04:15:36;11.60;99.90
40914;DHT22;26638;50.990;4.676;2024-01-30T04:18:02;11.70;99.90
40914;DHT22;26638;50.990;4.676;2024-01-30T04:20:29;11.70;99.90
40914;DHT22;26638;50.990;4.676;2024-01-30T04:22:54;11.70;99.90
40914;DHT22;26638;50.990;4.676;2024-01-30T04:25:21;11.70;99.90
40914;DHT22;26638;50.990;4.676;2024-01-30T04:27:47;11.80;99.90
40914;DHT22;26638;50.990;4.676;2024-01-30T04:30:12;11.80;99.90
40914;DHT22;26638;50.990;4.676;2024-01-30T04:32:38;11.80;99.90
40914;DHT22;26638;50.990;4.676;2024-01-30T04:35:04;11.70;99.90
40914;DHT22;26638;50.990;4.676;2024-01-30T04:37:30;11.70;99.90
40914;DHT22;26638;50.990;4.676;2024-01-30T04:39:56;11.80;99.90
40914;DHT22;26638;50.990;4.676;2024-01-30T04:42:23;11.70;99.90
40914;DHT22;26638;50.990;4.676;2024-01-30T04:44:49;11.70;99.90
40914;DHT22;26638;50.990;4.676;2024-01-30T04:47:15;11.80;99.90
40914;DHT22;26638;50.990;4.676;2024-01-30T04:49:41;11.90;99.90
40914;DHT22;26638;50.990;4.676;2024-01-30T04:52:07;11.90;99.90
40914;DHT22;26638;50.990;4.676;2024-01-30T04:54:33;11.90;99.90
40914;DHT22;26638;50.990;4.676;2024-01-30T04:57:00;11.80;99.90
40914;DHT22;26638;50.990;4.676;2024-01-30T04:59:26;11.80;99.90
40914;DHT22;26638;50.990;4.676;2024-01-30T05:01:51;11.80;99.90
40914;DHT22;26638;50.990;4.676;2024-01-30T05:04:17;11.90;99.90
40914;DHT22;26638;50.990;4.676;2024-01-30T05:06:43;11.90;99.90
40914;DHT22;26638;50.990;4.676;2024-01-30T05:09:09;11.90;99.90
40914;DHT22;26638;50.990;4.676;2024-01-30T05:11:38;11.90;99.90
40914;DHT22;26638;50.990;4.676;2024-01-30T05:14:05;12.00;99.90
40914;DHT22;26638;50.990;4.676;2024-01-30T05:16:31;11.80;99.90
40914;DHT22;26638;50.990;4.676;2024-01-30T05:18:57;12.00;99.90
40914;DHT22;26638;50.990;4.676;2024-01-30T05:21:23;11.90;99.90
40914;DHT22;26638;50.990;4.676;2024-01-30T05:23:49;11.80;99.90
40914;DHT22;26638;50.990;4.676;2024-01-30T05:26:14;11.80;99.90
40914;DHT22;26638;50.990;4.676;2024-01-30T05:28:40;11.80;99.90
40914;DHT22;26638;50.990;4.676;2024-01-30T05:31:06;11.90;99.90
40914;DHT22;26638;50.990;4.676;2024-01-30T05:33:32;11.90;99.90
40914;DHT22;26638;50.990;4.676;2024-01-30T05:35:57;11.80;99.90
40914;DHT22;26638;50.990;4.676;2024-01-30T05:38:23;11.80;99.90
40914;DHT22;26638;50.990;4.676;2024-01-30T05:40:49;11.70;99.90
40914;DHT22;26638;50.990;4.676;2024-01-30T05:43:14;11.70;99.90
40914;DHT22;26638;50.990;4.676;2024-01-30T05:45:40;11.70;99.90
40914;DHT22;26638;50.990;4.676;2024-01-30T05:48:06;11.70;99.90
40914;DHT22;26638;50.990;4.676;2024-01-30T05:50:32;11.80;99.90
40914;DHT22;26638;50.990;4.676;2024-01-30T05:52:58;11.70;99.90
40914;DHT22;26638;50.990;4.676;2024-01-30T05:55:23;11.70;99.90
40914;DHT22;26638;50.990;4.676;2024-01-30T05:57:49;11.60;99.90
40914;DHT22;26638;50.990;4.676;2024-01-30T06:00:16;11.70;99.90
40914;DHT22;26638;50.990;4.676;2024-01-30T06:02:42;11.80;99.90
40914;DHT22;26638;50.990;4.676;2024-01-30T06:05:08;11.80;99.90
40914;DHT22;26638;50.990;4.676;2024-01-30T06:07:34;11.80;99.90
40914;DHT22;26638;50.990;4.676;2024-01-30T06:09:59;11.80;99.90
40914;DHT22;26638;50.990;4.676;2024-01-30T06:12:27;11.80;99.90
40914;DHT22;26638;50.990;4.676;2024-01-30T06:14:53;11.80;99.90
40914;DHT22;26638;50.990;4.676;2024-01-30T06:17:22;11.90;99.90
40914;DHT22;26638;50.990;4.676;2024-01-30T06:19:48;11.80;99.90
40914;DHT22;26638;50.990;4.676;2024-01-30T06:22:14;11.80;99.90
40914;DHT22;26638;50.990;4.676;2024-01-30T06:24:40;11.90;99.90
40914;DHT22;26638;50.990;4.676;2024-01-30T06:27:05;11.80;99.90
40914;DHT22;26638;50.990;4.676;2024-01-30T06:29:31;11.80;99.90
40914;DHT22;26638;50.990;4.676;2024-01-30T06:31:57;11.80;99.90
40914;DHT22;26638;50.990;4.676;2024-01-30T06:34:23;11.70;99.90
40914;DHT22;26638;50.990;4.676;2024-01-30T06:36:48;11.70;99.90
40914;DHT22;26638;50.990;4.676;2024-01-30T06:39:14;11.60;99.90
40914;DHT22;26638;50.990;4.676;2024-01-30T06:41:40;11.60;99.90
40914;DHT22;26638;50.990;4.676;2024-01-30T06:44:05;11.70;99.90
40914;DHT22;26638;50.990;4.676;2024-01-30T06:46:33;11.80;99.90
40914;DHT22;26638;50.990;4.676;2024-01-30T06:48:59;11.90;99.90
40914;DHT22;26638;50.990;4.676;2024-01-30T06:51:25;12.00;99.90
40914;DHT22;26638;50.990;4.676;2024-01-30T06:53:51;11.90;99.90
40914;DHT22;26638;50.990;4.676;2024-01-30T06:56:17;11.90;99.90
40914;DHT22;26638;50.990;4.676;2024-01-30T06:58:49;11.80;99.90
40914;DHT22;26638;50.990;4.676;2024-01-30T07:01:15;11.70;99.90
40914;DHT22;26638;50.990;4.676;2024-01-30T07:03:41;11.70;99.90
40914;DHT22;26638;50.990;4.676;2024-01-30T07:06:08;11.80;99.90
40914;DHT22;26638;50.990;4.676;2024-01-30T07:08:33;11.80;99.90
40914;DHT22;26638;50.990;4.676;2024-01-30T07:10:59;11.80;99.90
40914;DHT22;26638;50.990;4.676;2024-01-30T07:13:25;11.90;99.90
40914;DHT22;26638;50.990;4.676;2024-01-30T07:15:51;12.00;99.90
40914;DHT22;26638;50.990;4.676;2024-01-30T07:18:17;12.00;99.90
40914;DHT22;26638;50.990;4.676;2024-01-30T07:20:42;12.20;99.90
40914;DHT22;26638;50.990;4.676;2024-01-30T07:23:14;12.30;99.90
40914;DHT22;26638;50.990;4.676;2024-01-30T07:25:42;12.40;99.90
40914;DHT22;26638;50.990;4.676;2024-01-30T07:28:10;12.50;99.90
40914;DHT22;26638;50.990;4.676;2024-01-30T07:30:37;12.50;99.90
40914;DHT22;26638;50.990;4.676;2024-01-30T07:33:04;12.60;99.90
40914;DHT22;26638;50.990;4.676;2024-01-30T07:35:30;12.70;99.90
40914;DHT22;26638;50.990;4.676;2024-01-30T07:37:56;12.70;99.90
40914;DHT22;26638;50.990;4.676;2024-01-30T07:40:22;12.80;99.90
40914;DHT22;26638;50.990;4.676;2024-01-30T07:42:49;12.70;99.90
40914;DHT22;26638;50.990;4.676;2024-01-30T07:45:15;12.70;99.90
40914;DHT22;26638;50.990;4.676;2024-01-30T07:47:40;12.70;99.90
40914;DHT22;26638;50.990;4.676;2024-01-30T07:50:08;12.50;99.90
40914;DHT22;26638;50.990;4.676;2024-01-30T07:52:34;12.60;99.90
40914;DHT22;26638;50.990;4.676;2024-01-30T07:55:00;12.70;99.90
40914;DHT22;26638;50.990;4.676;2024-01-30T07:57:26;12.80;99.90
40914;DHT22;26638;50.990;4.676;2024-01-30T07:59:52;12.90;99.90
40914;DHT22;26638;50.990;4.676;2024-01-30T08:02:17;13.00;99.90
40914;DHT22;26638;50.990;4.676;2024-01-30T08:04:43;12.80;99.90
40914;DHT22;26638;50.990;4.676;2024-01-30T08:07:09;12.70;99.90
40914;DHT22;26638;50.990;4.676;2024-01-30T08:09:34;12.90;99.90
40914;DHT22;26638;50.990;4.676;2024-01-30T08:12:00;13.00;99.90
40914;DHT22;26638;50.990;4.676;2024-01-30T08:14:26;12.90;99.90
40914;DHT22;26638;50.990;4.676;2024-01-30T08:16:52;13.00;99.90
40914;DHT22;26638;50.990;4.676;2024-01-30T08:19:19;12.90;99.90
40914;DHT22;26638;50.990;4.676;2024-01-30T08:21:44;13.10;99.90
40914;DHT22;26638;50.990;4.676;2024-01-30T08:24:10;13.00;99.90
40914;DHT22;26638;50.990;4.676;2024-01-30T08:26:36;13.00;99.90
40914;DHT22;26638;50.990;4.676;2024-01-30T08:29:02;13.10;99.90
40914;DHT22;26638;50.990;4.676;2024-01-30T08:31:28;13.20;99.90
40914;DHT22;26638;50.990;4.676;2024-01-30T08:33:53;13.30;99.90
40914;DHT22;26638;50.990;4.676;2024-01-30T08:36:20;13.20;99.90
40914;DHT22;26638;50.990;4.676;2024-01-30T08:38:45;13.30;99.90
40914;DHT22;26638;50.990;4.676;2024-01-30T08:41:11;13.30;99.90
40914;DHT22;26638;50.990;4.676;2024-01-30T08:43:37;13.40;99.90
40914;DHT22;26638;50.990;4.676;2024-01-30T08:46:03;13.30;99.90
40914;DHT22;26638;50.990;4.676;2024-01-30T08:48:29;13.50;99.90
40914;DHT22;26638;50.990;4.676;2024-01-30T08:50:54;13.60;99.90
40914;DHT22;26638;50.990;4.676;2024-01-30T08:53:23;13.70;99.90
40914;DHT22;26638;50.990;4.676;2024-01-30T08:55:50;13.70;99.90
40914;DHT22;26638;50.990;4.676;2024-01-30T08:58:16;13.80;99.90
40914;DHT22;26638;50.990;4.676;2024-01-30T09:00:43;13.70;99.90
40914;DHT22;26638;50.990;4.676;2024-01-30T09:03:09;13.80;99.90
40914;DHT22;26638;50.990;4.676;2024-01-30T09:05:35;13.80;99.90
40914;DHT22;26638;50.990;4.676;2024-01-30T09:08:00;13.80;99.90
40914;DHT22;26638;50.990;4.676;2024-01-30T09:10:26;13.70;99.90
40914;DHT22;26638;50.990;4.676;2024-01-30T09:12:52;13.80;99.90
40914;DHT22;26638;50.990;4.676;2024-01-30T09:15:18;13.50;99.90
40914;DHT22;26638;50.990;4.676;2024-01-30T09:17:44;13.50;99.90
40914;DHT22;26638;50.990;4.676;2024-01-30T09:20:10;13.40;99.90
40914;DHT22;26638;50.990;4.676;2024-01-30T09:22:36;13.50;99.90
40914;DHT22;26638;50.990;4.676;2024-01-30T09:25:02;13.40;99.90
40914;DHT22;26638;50.990;4.676;2024-01-30T09:27:28;13.40;99.90
40914;DHT22;26638;50.990;4.676;2024-01-30T09:29:53;13.50;99.90
40914;DHT22;26638;50.990;4.676;2024-01-30T09:32:19;13.60;99.90
40914;DHT22;26638;50.990;4.676;2024-01-30T09:34:45;13.50;99.90
40914;DHT22;26638;50.990;4.676;2024-01-30T09:37:11;13.60;99.90
40914;DHT22;26638;50.990;4.676;2024-01-30T09:39:37;13.70;99.90
40914;DHT22;26638;50.990;4.676;2024-01-30T09:42:17;13.90;99.90
40914;DHT22;26638;50.990;4.676;2024-01-30T09:44:47;14.10;99.90
40914;DHT22;26638;50.990;4.676;2024-01-30T09:47:16;13.90;99.90
40914;DHT22;26638;50.990;4.676;2024-01-30T09:49:43;13.90;99.90
40914;DHT22;26638;50.990;4.676;2024-01-30T09:52:10;13.70;99.90
40914;DHT22;26638;50.990;4.676;2024-01-30T09:54:36;13.60;99.90
40914;DHT22;26638;50.990;4.676;2024-01-30T09:57:06;13.40;99.90
40914;DHT22;26638;50.990;4.676;2024-01-30T09:59:33;13.60;99.90
40914;DHT22;26638;50.990;4.676;2024-01-30T10:01:59;13.50;99.90
40914;DHT22;26638;50.990;4.676;2024-01-30T10:04:24;13.50;99.90
40914;DHT22;26638;50.990;4.676;2024-01-30T10:06:51;13.60;99.90
40914;DHT22;26638;50.990;4.676;2024-01-30T10:09:17;13.60;99.90
40914;DHT22;26638;50.990;4.676;2024-01-30T10:11:42;13.60;99.90
40914;DHT22;26638;50.990;4.676;2024-01-30T10:14:08;13.50;99.90
40914;DHT22;26638;50.990;4.676;2024-01-30T10:16:35;13.40;99.90
40914;DHT22;26638;50.990;4.676;2024-01-30T10:19:00;13.50;99.90
40914;DHT22;26638;50.990;4.676;2024-01-30T10:21:26;13.30;99.90
40914;DHT22;26638;50.990;4.676;2024-01-30T10:23:52;13.40;99.90
40914;DHT22;26638;50.990;4.676;2024-01-30T10:26:18;13.50;99.90
40914;DHT22;26638;50.990;4.676;2024-01-30T10:28:44;13.40;99.90
40914;DHT22;26638;50.990;4.676;2024-01-30T10:31:10;13.40;99.90
40914;DHT22;26638;50.990;4.676;2024-01-30T10:33:36;13.40;99.90
40914;DHT22;26638;50.990;4.676;2024-01-30T10:36:03;13.40;99.90
40914;DHT22;26638;50.990;4.676;2024-01-30T10:38:31;13.60;99.90
40914;DHT22;26638;50.990;4.676;2024-01-30T10:40:57;13.30;99.90
40914;DHT22;26638;50.990;4.676;2024-01-30T10:43:47;13.30;99.90
40914;DHT22;26638;50.990;4.676;2024-01-30T10:46:16;13.50;99.90
40914;DHT22;26638;50.990;4.676;2024-01-30T10:48:56;13.50;99.90
40914;DHT22;26638;50.990;4.676;2024-01-30T10:51:25;13.70;99.90
40914;DHT22;26638;50.990;4.676;2024-01-30T10:53:52;13.50;99.90
40914;DHT22;26638;50.990;4.676;2024-01-30T10:56:28;13.40;99.90
40914;DHT22;26638;50.990;4.676;2024-01-30T10:58:54;13.30;99.90
40914;DHT22;26638;50.990;4.676;2024-01-30T11:01:23;13.40;99.90
40914;DHT22;26638;50.990;4.676;2024-01-30T11:03:54;13.40;99.90
40914;DHT22;26638;50.990;4.676;2024-01-30T11:06:24;13.60;99.90
40914;DHT22;26638;50.990;4.676;2024-01-30T11:09:05;13.40;99.90
40914;DHT22;26638;50.990;4.676;2024-01-30T11:11:57;13.00;99.90
40914;DHT22;26638;50.990;4.676;2024-01-30T11:14:28;13.10;99.90
40914;DHT22;26638;50.990;4.676;2024-01-30T11:16:57;13.00;99.90
40914;DHT22;26638;50.990;4.676;2024-01-30T11:19:30;12.90;99.90
40914;DHT22;26638;50.990;4.676;2024-01-30T11:21:57;13.10;99.90
40914;DHT22;26638;50.990;4.676;2024-01-30T11:24:23;12.90;99.90
40914;DHT22;26638;50.990;4.676;2024-01-30T11:26:55;12.70;99.90
40914;DHT22;26638;50.990;4.676;2024-01-30T11:29:24;12.80;99.90
40914;DHT22;26638;50.990;4.676;2024-01-30T11:31:57;12.90;99.90
40914;DHT22;26638;50.990;4.676;2024-01-30T11:34:24;13.20;99.90
40914;DHT22;26638;50.990;4.676;2024-01-30T11:36:56;13.30;99.90
40914;DHT22;26638;50.990;4.676;2024-01-30T11:39:26;13.40;99.90
40914;DHT22;26638;50.990;4.676;2024-01-30T11:41:52;13.50;99.90
40914;DHT22;26638;50.990;4.676;2024-01-30T11:44:21;13.30;99.90
40914;DHT22;26638;50.990;4.676;2024-01-30T11:46:51;13.20;99.90
40914;DHT22;26638;50.990;4.676;2024-01-30T11:49:17;12.90;99.90
40914;DHT22;26638;50.990;4.676;2024-01-30T11:51:45;12.70;99.90
40914;DHT22;26638;50.990;4.676;2024-01-30T11:54:11;12.70;99.90
40914;DHT22;26638;50.990;4.676;2024-01-30T11:56:37;12.70;99.90
40914;DHT22;26638;50.990;4.676;2024-01-30T11:59:04;12.60;99.90
40914;DHT22;26638;50.990;4.676;2024-01-30T12:01:30;12.50;99.90
40914;DHT22;26638;50.990;4.676;2024-01-30T12:03:58;12.10;99.90
40914;DHT22;26638;50.990;4.676;2024-01-30T12:06:23;12.10;99.90
40914;DHT22;26638;50.990;4.676;2024-01-30T12:09:00;12.40;99.90
40914;DHT22;26638;50.990;4.676;2024-01-30T12:11:27;12.60;99.90
40914;DHT22;26638;50.990;4.676;2024-01-30T12:13:53;13.70;99.90
40914;DHT22;26638;50.990;4.676;2024-01-30T12:16:20;16.10;96.50
40914;DHT22;26638;50.990;4.676;2024-01-30T12:18:46;16.20;91.50
40914;DHT22;26638;50.990;4.676;2024-01-30T12:21:12;14.60;93.20
40914;DHT22;26638;50.990;4.676;2024-01-30T12:23:37;13.60;96.10
40914;DHT22;26638;50.990;4.676;2024-01-30T12:26:04;13.70;97.30
40914;DHT22;26638;50.990;4.676;2024-01-30T12:28:33;13.60;96.80
40914;DHT22;26638;50.990;4.676;2024-01-30T12:31:02;13.70;96.80
40914;DHT22;26638;50.990;4.676;2024-01-30T12:33:29;14.40;95.40
40914;DHT22;26638;50.990;4.676;2024-01-30T12:36:01;16.20;91.60
40914;DHT22;26638;50.990;4.676;2024-01-30T12:38:27;17.00;88.10
40914;DHT22;26638;50.990;4.676;2024-01-30T12:40:56;18.20;81.70
40914;DHT22;26638;50.990;4.676;2024-01-30T12:43:23;18.50;80.20
40914;DHT22;26638;50.990;4.676;2024-01-30T12:45:50;18.10;81.10
40914;DHT22;26638;50.990;4.676;2024-01-30T12:48:15;16.40;83.90
40914;DHT22;26638;50.990;4.676;2024-01-30T12:50:41;14.90;90.00
40914;DHT22;26638;50.990;4.676;2024-01-30T12:53:07;13.80;92.80
40914;DHT22;26638;50.990;4.676;2024-01-30T12:55:34;13.30;94.70
40914;DHT22;26638;50.990;4.676;2024-01-30T12:58:00;12.60;97.40
40914;DHT22;26638;50.990;4.676;2024-01-30T13:00:27;12.30;99.10
40914;DHT22;26638;50.990;4.676;2024-01-30T13:02:53;12.50;99.40
40914;DHT22;26638;50.990;4.676;2024-01-30T13:05:19;14.10;95.70
40914;DHT22;26638;50.990;4.676;2024-01-30T13:07:45;15.40;91.50
40914;DHT22;26638;50.990;4.676;2024-01-30T13:10:11;16.60;87.80
40914;DHT22;26638;50.990;4.676;2024-01-30T13:12:37;17.50;82.50
40914;DHT22;26638;50.990;4.676;2024-01-30T13:15:04;17.60;79.80
40914;DHT22;26638;50.990;4.676;2024-01-30T13:17:31;18.50;77.80
40914;DHT22;26638;50.990;4.676;2024-01-30T13:19:57;18.70;73.30
40914;DHT22;26638;50.990;4.676;2024-01-30T13:22:23;18.50;72.50
40914;DHT22;26638;50.990;4.676;2024-01-30T13:24:50;16.40;78.10
40914;DHT22;26638;50.990;4.676;2024-01-30T13:27:16;14.80;85.50
40914;DHT22;26638;50.990;4.676;2024-01-30T13:29:42;13.80;91.00
40914;DHT22;26638;50.990;4.676;2024-01-30T13:32:07;13.50;91.60
40914;DHT22;26638;50.990;4.676;2024-01-30T13:34:33;13.40;93.70
40914;DHT22;26638;50.990;4.676;2024-01-30T13:36:59;13.50;93.30
40914;DHT22;26638;50.990;4.676;2024-01-30T13:39:28;13.60;94.10
40914;DHT22;26638;50.990;4.676;2024-01-30T13:41:54;13.70;94.70
40914;DHT22;26638;50.990;4.676;2024-01-30T13:44:20;13.60;96.40
40914;DHT22;26638;50.990;4.676;2024-01-30T13:46:46;13.50;97.10
40914;DHT22;26638;50.990;4.676;2024-01-30T13:49:12;12.90;98.20
40914;DHT22;26638;50.990;4.676;2024-01-30T13:51:38;12.80;99.90
40914;DHT22;26638;50.990;4.676;2024-01-30T13:54:03;12.70;99.90
40914;DHT22;26638;50.990;4.676;2024-01-30T13:56:30;12.50;99.90
40914;DHT22;26638;50.990;4.676;2024-01-30T13:58:56;12.50;99.90
40914;DHT22;26638;50.990;4.676;2024-01-30T14:01:22;12.50;99.90
40914;DHT22;26638;50.990;4.676;2024-01-30T14:03:48;12.70;99.90
40914;DHT22;26638;50.990;4.676;2024-01-30T14:06:14;12.40;99.90
40914;DHT22;26638;50.990;4.676;2024-01-30T14:08:40;12.40;99.90
40914;DHT22;26638;50.990;4.676;2024-01-30T14:11:06;12.20;99.90
40914;DHT22;26638;50.990;4.676;2024-01-30T14:13:32;12.00;99.90
40914;DHT22;26638;50.990;4.676;2024-01-30T14:15:58;11.90;99.90
40914;DHT22;26638;50.990;4.676;2024-01-30T14:18:24;12.20;99.90
40914;DHT22;26638;50.990;4.676;2024-01-30T14:20:51;12.40;99.90
40914;DHT22;26638;50.990;4.676;2024-01-30T14:23:17;12.30;99.90
40914;DHT22;26638;50.990;4.676;2024-01-30T14:25:43;12.30;99.90
40914;DHT22;26638;50.990;4.676;2024-01-30T14:28:09;12.10;99.90
40914;DHT22;26638;50.990;4.676;2024-01-30T14:30:35;11.80;99.90
40914;DHT22;26638;50.990;4.676;2024-01-30T14:33:01;11.70;99.90
40914;DHT22;26638;50.990;4.676;2024-01-30T14:35:27;11.80;99.90
40914;DHT22;26638;50.990;4.676;2024-01-30T14:37:53;12.10;99.90
40914;DHT22;26638;50.990;4.676;2024-01-30T14:40:19;12.20;99.90
40914;DHT22;26638;50.990;4.676;2024-01-30T14:42:45;12.00;99.90
40914;DHT22;26638;50.990;4.676;2024-01-30T14:45:11;12.00;99.90
40914;DHT22;26638;50.990;4.676;2024-01-30T14:47:37;12.10;99.90
40914;DHT22;26638;50.990;4.676;2024-01-30T14:50:04;11.90;99.90
40914;DHT22;26638;50.990;4.676;2024-01-30T14:52:31;11.60;99.90
40914;DHT22;26638;50.990;4.676;2024-01-30T14:54:57;11.50;99.90
40914;DHT22;26638;50.990;4.676;2024-01-30T14:57:24;11.20;99.90
40914;DHT22;26638;50.990;4.676;2024-01-30T14:59:49;11.10;99.90
40914;DHT22;26638;50.990;4.676;2024-01-30T15:02:15;11.40;99.90
40914;DHT22;26638;50.990;4.676;2024-01-30T15:04:41;11.60;99.90
40914;DHT22;26638;50.990;4.676;2024-01-30T15:07:07;11.50;99.90
40914;DHT22;26638;50.990;4.676;2024-01-30T15:09:33;11.50;99.90
40914;DHT22;26638;50.990;4.676;2024-01-30T15:11:58;11.40;99.90
40914;DHT22;26638;50.990;4.676;2024-01-30T15:14:24;11.50;99.90
40914;DHT22;26638;50.990;4.676;2024-01-30T15:16:50;11.30;99.90
40914;DHT22;26638;50.990;4.676;2024-01-30T15:19:16;11.30;99.90
40914;DHT22;26638;50.990;4.676;2024-01-30T15:21:42;11.40;99.90
40914;DHT22;26638;50.990;4.676;2024-01-30T15:24:07;11.00;99.90
40914;DHT22;26638;50.990;4.676;2024-01-30T15:26:33;11.10;99.90
40914;DHT22;26638;50.990;4.676;2024-01-30T15:28:59;11.10;99.90